Time;durP1;ratioP1;P1;durP2;ratioP2;P2;SDS_P1;SDS_P2;PMS_P1;PMS_P2;Temp;Humidity;BMP_temperature;BMP_pressure;BME280_temperature;BME280_humidity;BME280_pressure;Samples;Min_cycle;Max_cycle;Signal;HPM_P1;HPM_P2
2023/04/18 00:01:13;;;;;;;;;;;11.30;57.30;;;6.63;97.56;95634.56;5016804;23;19927;-51
2023/04/18 00:03:39;;;;;;;;;;;11.30;57.30;;;6.76;97.27;95641.41;5030699;28;20306;-51
2023/04/18 00:06:05;;;;;;;;;;;11.30;57.30;;;6.81;97.10;95635.41;5031658;28;19919;-54
2023/04/18 00:08:32;;;;;;;;;;;11.30;57.30;;;6.79;96.90;95634.84;5030733;28;19913;-52
2023/04/18 00:10:58;;;;;;;;;;;11.40;57.30;;;6.76;97.07;95633.47;5031568;28;19909;-48
2023/04/18 00:13:27;;;;;;;;;;;11.40;57.30;;;6.65;96.71;95624.56;5029787;28;19970;-52
2023/04/18 00:15:53;;;;;;;;;;;11.40;57.30;;;6.70;96.95;95623.81;5011673;28;19939;-48
2023/04/18 00:18:19;;;;;;;;;;;11.40;57.30;;;6.77;96.71;95623.66;5011714;28;19913;-48
2023/04/18 00:20:47;;;;;;;;;;;11.40;57.30;;;6.77;96.69;95624.50;5010878;28;20302;-48
2023/04/18 00:23:13;;;;;;;;;;;11.40;57.30;;;6.68;96.83;95613.50;5011884;28;20291;-48
2023/04/18 00:25:40;;;;;;;;;;;11.40;57.30;;;6.71;96.75;95614.88;5010634;28;19916;-50
2023/04/18 00:28:05;;;;;;;;;;;11.40;57.40;;;6.67;97.21;95616.38;5011778;28;19956;-50
2023/04/18 00:30:31;;;;;;;;;;;11.40;57.30;;;6.68;97.04;95616.13;5012074;28;20398;-49
2023/04/18 00:32:57;;;;;;;;;;;11.40;58.00;;;6.69;97.09;95609.00;5010706;28;20148;-51
2023/04/18 00:35:23;;;;;;;;;;;11.40;57.40;;;6.67;96.89;95613.72;5011503;28;20329;-48
2023/04/18 00:37:49;;;;;;;;;;;11.40;57.40;;;6.76;96.88;95609.63;5010545;28;19963;-53
2023/04/18 00:40:16;;;;;;;;;;;11.40;57.40;;;6.82;96.99;95613.19;5011509;28;19915;-48
2023/04/18 00:42:41;;;;;;;;;;;11.40;57.40;;;6.77;96.51;95619.22;5026880;28;19913;-53
2023/04/18 00:45:08;;;;;;;;;;;11.40;57.50;;;6.71;96.91;95609.56;5010817;28;20030;-48
2023/04/18 00:47:33;;;;;;;;;;;11.40;57.40;;;6.78;96.83;95609.41;5012098;28;20008;-48
2023/04/18 00:49:59;;;;;;;;;;;11.40;57.40;;;6.77;96.59;95611.25;5010341;28;20004;-48
2023/04/18 00:52:27;;;;;;;;;;;11.40;57.50;;;6.81;96.60;95595.69;5011477;28;20356;-49
2023/04/18 00:54:54;;;;;;;;;;;11.50;57.60;;;6.76;96.99;95607.00;5011445;28;19917;-48
2023/04/18 00:57:21;;;;;;;;;;;11.50;57.60;;;6.74;96.46;95603.81;5025486;28;19913;-48
2023/04/18 00:59:47;;;;;;;;;;;11.50;57.60;;;6.85;96.20;95610.06;5030027;28;19932;-48
2023/04/18 01:02:12;;;;;;;;;;;11.50;57.60;;;6.86;96.42;95601.88;5022289;28;19917;-51
2023/04/18 01:04:41;;;;;;;;;;;11.50;57.60;;;6.87;96.00;95600.03;5011524;28;19913;-50
2023/04/18 01:07:07;;;;;;;;;;;11.50;57.60;;;6.87;95.86;95607.97;5026364;28;19909;-48
2023/04/18 01:09:33;;;;;;;;;;;11.50;57.70;;;6.79;96.25;95603.06;5043122;28;19936;-48
2023/04/18 01:11:58;;;;;;;;;;;11.50;57.70;;;6.89;96.08;95609.34;5031275;28;20383;-49
2023/04/18 01:14:24;;;;;;;;;;;11.50;57.70;;;6.92;95.48;95602.75;5024485;28;19963;-48
2023/04/18 01:16:50;;;;;;;;;;;11.50;57.70;;;6.92;96.03;95600.91;5014718;28;19948;-51
2023/04/18 01:19:16;;;;;;;;;;;11.50;57.70;;;6.89;96.05;95600.56;5014560;28;19912;-48
2023/04/18 01:21:42;;;;;;;;;;;11.60;57.70;;;6.83;96.57;95599.72;5014086;28;19913;-48
2023/04/18 01:24:16;;;;;;;;;;;11.50;57.60;;;6.88;96.34;95591.84;5029958;28;20000;-50
2023/04/18 01:26:46;;;;;;;;;;;11.60;57.70;;;6.92;96.12;95597.44;5013699;28;19956;-50
2023/04/18 01:29:12;;;;;;;;;;;11.50;58.30;;;6.95;95.57;95591.66;5014725;28;20003;-49
2023/04/18 01:31:40;;;;;;;;;;;11.60;57.80;;;6.97;95.85;95586.16;5015312;28;19963;-53
2023/04/18 01:34:06;;;;;;;;;;;11.60;57.80;;;6.97;95.76;95583.50;5033014;28;19943;-48
2023/04/18 01:36:36;;;;;;;;;;;11.60;57.80;;;6.99;95.92;95578.75;5034711;28;20487;-49
2023/04/18 01:39:02;;;;;;;;;;;11.60;57.80;;;6.99;95.94;95576.09;5020212;28;19919;-48
2023/04/18 01:41:31;;;;;;;;;;;11.60;57.80;;;6.87;96.45;95579.66;5014523;28;19948;-48
2023/04/18 01:43:57;;;;;;;;;;;11.60;57.80;;;6.78;97.20;95575.00;5013463;28;19913;-50
2023/04/18 01:46:23;;;;;;;;;;;11.60;57.70;;;6.89;96.75;95574.94;5014388;28;19916;-51
2023/04/18 01:48:49;;;;;;;;;;;11.60;57.70;;;6.91;96.45;95578.13;4996716;28;19910;-49
2023/04/18 01:51:15;;;;;;;;;;;11.60;57.80;;;6.84;97.10;95577.47;5008650;28;20282;-50
2023/04/18 01:53:41;;;;;;;;;;;11.60;57.80;;;6.84;97.41;95574.03;5014239;28;19909;-51
2023/04/18 01:56:08;;;;;;;;;;;11.60;57.80;;;6.88;97.38;95570.66;5013015;28;19913;-48
2023/04/18 01:58:35;;;;;;;;;;;11.60;57.80;;;6.87;97.01;95568.25;5014097;28;19917;-47
2023/04/18 02:01:01;;;;;;;;;;;11.60;57.90;;;6.92;97.20;95570.97;5014082;28;20287;-48
2023/04/18 02:03:27;;;;;;;;;;;11.60;57.90;;;6.92;97.30;95570.97;5029491;28;19908;-49
2023/04/18 02:05:53;;;;;;;;;;;11.60;57.90;;;6.94;97.22;95559.09;5033597;28;20008;-49
2023/04/18 02:08:18;;;;;;;;;;;11.60;57.90;;;6.93;97.25;95565.44;5025268;28;19959;-49
2023/04/18 02:10:44;;;;;;;;;;;11.60;58.00;;;6.92;97.58;95558.53;5014009;28;19917;-48
2023/04/18 02:13:10;;;;;;;;;;;11.60;57.90;;;6.89;97.55;95556.38;5013858;28;19909;-48
2023/04/18 02:15:36;;;;;;;;;;;11.60;58.00;;;6.86;98.15;95556.03;5030519;28;19916;-48
2023/04/18 02:18:02;;;;;;;;;;;11.60;58.00;;;6.88;98.17;95552.13;5011608;28;19913;-48
2023/04/18 02:20:32;;;;;;;;;;;11.60;58.00;;;6.85;98.33;95563.19;5000987;28;19909;-49
2023/04/18 02:22:59;;;;;;;;;;;11.60;58.00;;;6.76;98.66;95559.34;5013728;28;19944;-48
2023/04/18 02:25:27;;;;;;;;;;;11.60;58.10;;;6.87;98.36;95555.81;5028543;28;19910;-50
2023/04/18 02:27:54;;;;;;;;;;;11.60;58.10;;;6.89;98.48;95548.44;5011817;28;19916;-48
2023/04/18 02:30:20;;;;;;;;;;;11.50;58.10;;;6.85;99.00;95552.59;5013880;28;19909;-48
2023/04/18 02:32:46;;;;;;;;;;;11.60;58.10;;;6.91;98.52;95556.94;5012496;28;19916;-48
2023/04/18 02:35:12;;;;;;;;;;;11.50;58.10;;;6.94;98.26;95555.66;5013456;28;19924;-49
2023/04/18 02:37:38;;;;;;;;;;;11.50;58.20;;;6.91;98.31;95548.19;5012770;28;19909;-51
2023/04/18 02:40:04;;;;;;;;;;;11.60;58.20;;;6.95;98.29;95549.31;5013420;28;19909;-49
2023/04/18 02:42:30;;;;;;;;;;;11.60;58.30;;;6.98;98.18;95545.38;5013231;28;20299;-49
2023/04/18 02:44:56;;;;;;;;;;;11.60;58.30;;;6.98;97.94;95537.44;5012605;28;20398;-49
2023/04/18 02:47:22;;;;;;;;;;;11.60;58.30;;;7.00;97.91;95546.75;5013047;28;19921;-48
2023/04/18 02:49:48;;;;;;;;;;;11.60;58.30;;;6.94;98.19;95540.56;5012748;28;19932;-48
2023/04/18 02:52:14;;;;;;;;;;;11.60;58.30;;;6.92;98.58;95537.34;5013181;28;19988;-48
2023/04/18 02:54:40;;;;;;;;;;;11.60;58.30;;;6.89;98.45;95542.31;5013019;28;19917;-48
2023/04/18 02:57:05;;;;;;;;;;;11.60;58.30;;;6.91;98.68;95541.03;5012148;28;19983;-48
2023/04/18 02:59:31;;;;;;;;;;;11.60;58.30;;;6.86;98.23;95548.09;5013143;28;20004;-48
2023/04/18 03:01:57;;;;;;;;;;;11.60;58.30;;;6.92;98.26;95542.63;5011869;28;19967;-50
2023/04/18 03:04:23;;;;;;;;;;;11.60;58.40;;;7.00;98.11;95532.69;5013076;28;19916;-48
2023/04/18 03:06:49;;;;;;;;;;;11.60;59.00;;;6.85;98.60;95531.41;5013062;28;20092;-54
2023/04/18 03:09:15;;;;;;;;;;;11.60;58.40;;;6.83;98.93;95538.81;5012091;28;19909;-54
2023/04/18 03:11:41;;;;;;;;;;;11.60;58.40;;;6.91;98.44;95521.72;5012869;28;19937;-51
2023/04/18 03:14:07;;;;;;;;;;;11.60;58.50;;;6.94;98.77;95523.88;5011891;28;20377;-54
2023/04/18 03:16:33;;;;;;;;;;;11.60;58.50;;;6.92;98.53;95526.75;5012779;28;19917;-54
2023/04/18 03:19:00;;;;;;;;;;;11.60;58.50;;;6.86;98.88;95529.56;5024714;28;19909;-50
2023/04/18 03:21:26;;;;;;;;;;;11.60;58.50;;;6.88;98.72;95530.13;5008020;28;19955;-53
2023/04/18 03:23:52;;;;;;;;;;;11.60;58.50;;;6.86;99.26;95534.88;5011620;28;19909;-54
2023/04/18 03:26:18;;;;;;;;;;;11.50;58.50;;;6.92;99.14;95526.75;5011734;28;19915;-52
2023/04/18 03:28:44;;;;;;;;;;;11.60;58.50;;;6.93;98.71;95525.72;5011440;28;19909;-52
2023/04/18 03:31:10;;;;;;;;;;;11.60;58.60;;;6.94;98.44;95526.53;5012222;28;19932;-51
2023/04/18 03:33:37;;;;;;;;;;;11.60;58.60;;;6.90;98.56;95523.56;5028751;28;19915;-52
2023/04/18 03:36:04;;;;;;;;;;;11.60;58.60;;;6.97;98.72;95528.69;5031517;28;19917;-54
2023/04/18 03:38:30;;;;;;;;;;;11.60;58.70;;;6.98;98.36;95529.47;5030689;28;19908;-54
2023/04/18 03:40:56;;;;;;;;;;;11.60;58.70;;;6.93;98.43;95527.56;5031984;28;19909;-50
2023/04/18 03:43:22;;;;;;;;;;;11.60;58.70;;;6.91;98.40;95527.00;5032141;28;19916;-52
2023/04/18 03:45:48;;;;;;;;;;;11.60;59.30;;;6.93;98.44;95533.66;5023862;28;20347;-52
2023/04/18 03:48:14;;;;;;;;;;;11.60;58.70;;;6.89;98.44;95532.56;5005537;28;20347;-53
2023/04/18 03:50:40;;;;;;;;;;;11.60;58.80;;;6.87;98.39;95526.69;5011600;28;19923;-51
2023/04/18 03:53:06;;;;;;;;;;;11.60;58.80;;;6.89;98.06;95518.50;5012048;28;19979;-54
2023/04/18 03:55:34;;;;;;;;;;;11.60;58.80;;;6.87;98.43;95521.41;5010829;28;26682;-51
2023/04/18 03:57:59;;;;;;;;;;;11.60;58.80;;;6.86;98.80;95521.63;5031833;28;19985;-49
2023/04/18 04:00:25;;;;;;;;;;;11.60;58.80;;;6.88;98.58;95530.13;5025230;28;20414;-50
2023/04/18 04:02:51;;;;;;;;;;;11.60;58.80;;;6.80;98.94;95515.47;5008458;28;19943;-51
2023/04/18 04:05:17;;;;;;;;;;;11.60;58.80;;;6.78;98.40;95522.03;5011760;28;19913;-54
2023/04/18 04:07:43;;;;;;;;;;;11.60;58.80;;;6.79;98.85;95521.78;5010726;28;20300;-51
2023/04/18 04:10:09;;;;;;;;;;;11.50;58.80;;;6.86;99.01;95524.28;5011722;28;19917;-54
2023/04/18 04:12:35;;;;;;;;;;;11.50;58.80;;;6.86;98.99;95522.44;5026751;28;19995;-54
2023/04/18 04:15:01;;;;;;;;;;;11.50;58.90;;;6.92;98.82;95528.59;5010970;28;20015;-53
2023/04/18 04:17:26;;;;;;;;;;;11.50;58.90;;;6.96;98.57;95527.09;5011682;28;19909;-49
2023/04/18 04:19:52;;;;;;;;;;;11.50;58.90;;;6.98;98.54;95526.84;5010469;28;20451;-49
2023/04/18 04:22:18;;;;;;;;;;;11.50;58.90;;;6.99;98.47;95526.59;5011411;28;19916;-51
2023/04/18 04:24:45;;;;;;;;;;;11.50;59.00;;;6.99;98.66;95528.44;5011759;28;20180;-51
2023/04/18 04:27:12;;;;;;;;;;;11.60;59.00;;;6.94;98.53;95523.88;5011138;28;19913;-50
2023/04/18 04:29:38;;;;;;;;;;;11.60;59.00;;;6.96;98.60;95529.75;5011625;28;20275;-52
2023/04/18 04:32:05;;;;;;;;;;;11.60;59.00;;;7.02;98.33;95528.78;5014036;28;20301;-52
2023/04/18 04:34:33;;;;;;;;;;;11.60;59.00;;;7.03;97.67;95526.91;5031346;28;20134;-49
2023/04/18 04:37:00;;;;;;;;;;;11.60;59.60;;;6.98;98.12;95530.28;5011453;28;19916;-51
2023/04/18 04:39:25;;;;;;;;;;;11.60;59.00;;;6.85;98.28;95535.91;5010853;28;19909;-51
2023/04/18 04:41:52;;;;;;;;;;;11.60;59.00;;;6.93;98.80;95544.25;5011424;28;19913;-51
2023/04/18 04:44:18;;;;;;;;;;;11.60;59.00;;;7.03;98.41;95534.88;5010854;28;20397;-54
2023/04/18 04:46:44;;;;;;;;;;;11.60;59.00;;;7.02;98.17;95528.78;5011398;28;20318;-52
2023/04/18 04:49:11;;;;;;;;;;;11.60;59.00;;;6.99;98.14;95546.97;5030187;28;19909;-52
2023/04/18 04:51:37;;;;;;;;;;;11.70;59.70;;;6.92;98.46;95536.53;5009849;28;19920;-54
2023/04/18 04:54:03;;;;;;;;;;;11.60;59.60;;;6.94;98.82;95551.16;4995704;28;20008;-51
2023/04/18 04:56:29;;;;;;;;;;;11.60;59.00;;;7.01;98.57;95537.75;5000665;28;20007;-51
2023/04/18 04:58:55;;;;;;;;;;;11.60;59.10;;;6.99;98.80;95546.97;5015116;28;20055;-49
2023/04/18 05:01:21;;;;;;;;;;;11.60;59.10;;;7.00;98.39;95538.78;5014751;28;19921;-50
2023/04/18 05:03:48;;;;;;;;;;;11.70;59.10;;;7.02;98.35;95546.47;5014298;28;20295;-50
2023/04/18 05:06:19;;;;;;;;;;;11.60;59.10;;;7.02;98.27;95552.59;5013938;28;20066;-49
2023/04/18 05:08:49;;;;;;;;;;;11.70;59.20;;;7.05;98.41;95543.34;5013961;28;20287;-48
2023/04/18 05:11:15;;;;;;;;;;;11.70;59.20;;;7.04;98.29;95541.75;5013326;28;20287;-49
2023/04/18 05:13:42;;;;;;;;;;;11.70;59.20;;;7.03;98.52;95550.75;5015171;28;19913;-49
2023/04/18 05:16:08;;;;;;;;;;;11.70;59.20;;;7.03;98.53;95546.25;5034744;28;20283;-51
2023/04/18 05:18:37;;;;;;;;;;;11.70;59.10;;;7.06;98.22;95545.78;5010613;28;19909;-49
2023/04/18 05:21:04;;;;;;;;;;;11.70;59.20;;;7.05;98.37;95546.81;5012916;28;20291;-50
2023/04/18 05:23:31;;;;;;;;;;;11.80;59.20;;;7.11;98.24;95551.16;5014108;28;19912;-54
2023/04/18 05:25:57;;;;;;;;;;;11.80;59.20;;;7.00;98.52;95548.59;5011637;28;19921;-49
2023/04/18 05:28:26;;;;;;;;;;;11.80;59.20;;;7.09;98.39;95547.13;5013146;28;19909;-52
2023/04/18 05:30:59;;;;;;;;;;;11.80;59.20;;;7.11;98.13;95553.81;5012246;28;19958;-50
2023/04/18 05:33:29;;;;;;;;;;;11.80;59.20;;;7.11;97.87;95553.81;5013327;28;20298;-54
2023/04/18 05:35:56;;;;;;;;;;;11.80;59.20;;;7.15;97.37;95554.13;5015322;28;19912;-53
2023/04/18 05:38:22;;;;;;;;;;;11.80;59.20;;;7.23;97.30;95550.22;4995612;28;19913;-53
2023/04/18 05:40:49;;;;;;;;;;;11.90;59.20;;;7.27;97.10;95546.03;5014489;28;19909;-49
2023/04/18 05:43:18;;;;;;;;;;;11.90;59.20;;;7.28;97.11;95556.41;5014469;28;20012;-50
2023/04/18 05:45:44;;;;;;;;;;;12.00;59.20;;;7.34;96.98;95558.09;5031315;28;19932;-50
2023/04/18 05:48:11;;;;;;;;;;;12.00;59.20;;;7.38;96.89;95561.03;5021889;28;19980;-48
2023/04/18 05:50:36;;;;;;;;;;;12.00;59.10;;;7.40;96.25;95554.47;5031323;28;19908;-48
2023/04/18 05:53:02;;;;;;;;;;;12.10;59.20;;;7.41;96.13;95560.56;5034022;28;19931;-48
2023/04/18 05:55:28;;;;;;;;;;;12.10;59.10;;;7.46;96.37;95567.75;5033789;28;20020;-50
2023/04/18 05:57:54;;;;;;;;;;;12.10;59.10;;;7.48;95.96;95563.81;5013483;28;19944;-48
2023/04/18 06:00:20;;;;;;;;;;;12.20;59.10;;;7.47;95.99;95556.13;5013488;28;20387;-49
2023/04/18 06:02:45;;;;;;;;;;;12.20;59.10;;;7.44;95.82;95567.22;5020341;22;19925;-51
2023/04/18 06:05:12;;;;;;;;;;;12.20;59.00;;;7.50;96.13;95569.69;5012585;28;20283;-49
2023/04/18 06:07:38;;;;;;;;;;;12.30;59.00;;;7.52;96.05;95564.97;5011906;28;19931;-55
2023/04/18 06:10:09;;;;;;;;;;;12.30;59.00;;;7.45;96.09;95564.31;4984121;28;19925;-54
2023/04/18 06:12:35;;;;;;;;;;;12.30;59.00;;;7.52;96.11;95572.09;4993883;28;19916;-52
2023/04/18 06:15:02;;;;;;;;;;;12.30;59.00;;;7.55;95.68;95572.41;4992987;28;19917;-52
2023/04/18 06:17:28;;;;;;;;;;;12.30;59.00;;;7.56;95.62;95576.66;4994203;28;19909;-51
2023/04/18 06:19:54;;;;;;;;;;;12.30;58.90;;;7.53;96.20;95574.50;4995546;28;20340;-54
2023/04/18 06:22:19;;;;;;;;;;;12.40;58.90;;;7.52;96.06;95578.22;5013646;28;19909;-53
2023/04/18 06:24:45;;;;;;;;;;;12.40;58.90;;;7.59;95.92;95581.47;5013731;28;19909;-53
2023/04/18 06:27:11;;;;;;;;;;;12.40;58.90;;;7.65;95.64;95575.19;5011878;28;19915;-50
2023/04/18 06:29:37;;;;;;;;;;;12.40;58.90;;;7.68;95.26;95581.88;5013552;28;20015;-50
2023/04/18 06:32:04;;;;;;;;;;;12.50;58.90;;;7.68;95.06;95578.38;5008281;28;19996;-50
2023/04/18 06:34:29;;;;;;;;;;;12.50;58.90;;;7.63;95.29;95574.63;4992476;28;20455;-51
2023/04/18 06:36:55;;;;;;;;;;;12.60;58.80;;;7.65;95.89;95579.69;4993870;28;19910;-53
2023/04/18 06:39:21;;;;;;;;;;;12.60;58.80;;;7.65;95.48;95577.06;4992666;28;20319;-51
2023/04/18 06:41:48;;;;;;;;;;;12.60;58.70;;;7.76;95.21;95585.91;4993619;28;20322;-52
2023/04/18 06:44:14;;;;;;;;;;;12.60;58.80;;;7.78;95.20;95587.28;4992769;28;20423;-50
2023/04/18 06:46:41;;;;;;;;;;;12.70;58.80;;;7.77;94.74;95580.38;4993589;28;20323;-54
2023/04/18 06:49:06;;;;;;;;;;;12.60;58.70;;;7.81;94.41;95586.78;4993323;28;20290;-53
2023/04/18 06:51:33;;;;;;;;;;;12.60;58.70;;;7.76;94.88;95585.91;4992619;28;19913;-53
2023/04/18 06:53:58;;;;;;;;;;;12.70;58.80;;;7.82;95.06;95584.94;4993437;28;19920;-50
2023/04/18 06:56:25;;;;;;;;;;;12.70;58.80;;;7.77;94.97;95590.16;4992319;28;20160;-51
2023/04/18 06:58:51;;;;;;;;;;;12.70;58.70;;;7.84;94.73;95582.84;4993437;28;19933;-52
2023/04/18 07:01:18;;;;;;;;;;;12.70;58.80;;;7.81;94.25;95594.75;4991910;28;20356;-50
2023/04/18 07:03:44;;;;;;;;;;;12.70;58.70;;;7.72;95.17;95582.16;4992033;28;19909;-52
2023/04/18 07:06:09;;;;;;;;;;;12.70;58.70;;;7.51;95.58;95581.88;4993407;28;19910;-51
2023/04/18 07:08:36;;;;;;;;;;;12.80;58.70;;;7.71;96.21;95584.03;4992375;28;19967;-52
2023/04/18 07:11:02;;;;;;;;;;;12.80;58.60;;;7.81;95.38;95586.78;4992102;28;20356;-52
2023/04/18 07:13:27;;;;;;;;;;;12.80;58.70;;;7.95;95.10;95589.88;4992998;28;19971;-52
2023/04/18 07:15:53;;;;;;;;;;;12.80;58.70;;;8.00;94.37;95595.25;4971706;28;19917;-56
2023/04/18 07:18:19;;;;;;;;;;;12.90;58.70;;;8.07;94.23;95579.94;4972428;28;19941;-53
2023/04/18 07:20:45;;;;;;;;;;;13.00;58.70;;;8.11;93.91;95580.22;4981556;28;19931;-49
2023/04/18 07:23:10;;;;;;;;;;;13.10;58.60;;;8.09;93.59;95575.19;4992947;28;19920;-51
2023/04/18 07:25:37;;;;;;;;;;;13.20;58.50;;;8.15;93.64;95589.31;4992057;28;20352;-54
2023/04/18 07:28:03;;;;;;;;;;;13.30;58.40;;;8.13;93.86;95586.09;4974015;28;20331;-51
2023/04/18 07:30:29;;;;;;;;;;;13.40;58.40;;;8.16;93.74;95587.47;4973411;28;19955;-52
2023/04/18 07:32:55;;;;;;;;;;;13.40;58.30;;;8.25;93.00;95588.63;4982279;28;19913;-50
2023/04/18 07:35:20;;;;;;;;;;;13.60;58.30;;;8.19;93.29;95589.63;4992666;28;19913;-53
2023/04/18 07:37:46;;;;;;;;;;;13.70;58.10;;;8.13;93.75;95594.06;4991843;28;20063;-49
2023/04/18 07:40:12;;;;;;;;;;;13.80;58.00;;;8.24;92.67;95589.66;4992555;28;19966;-50
2023/04/18 07:42:38;;;;;;;;;;;13.90;57.90;;;8.20;92.46;95586.69;4992801;28;20372;-52
2023/04/18 07:45:05;;;;;;;;;;;14.00;57.80;;;8.32;93.22;95592.66;5003322;28;19916;-51
2023/04/18 07:47:31;;;;;;;;;;;14.10;57.70;;;8.37;91.88;95588.47;5010327;28;19909;-53
2023/04/18 07:49:56;;;;;;;;;;;14.20;57.60;;;8.58;91.95;95593.75;5007700;28;19913;-52
2023/04/18 07:52:22;;;;;;;;;;;14.20;57.60;;;8.74;91.18;95594.72;4992340;28;20375;-51
2023/04/18 07:54:48;;;;;;;;;;;14.30;57.60;;;8.71;90.46;95597.88;4992128;28;19914;-50
2023/04/18 07:57:14;;;;;;;;;;;14.40;57.50;;;8.63;91.29;95595.66;5004679;28;19916;-50
2023/04/18 07:59:40;;;;;;;;;;;14.50;57.30;;;8.71;90.90;95605.00;4994168;28;20267;-51
2023/04/18 08:02:06;;;;;;;;;;;14.50;57.20;;;8.90;89.84;95606.28;5006209;28;19954;-57
2023/04/18 08:04:32;;;;;;;;;;;14.60;57.20;;;8.91;89.28;95605.22;4992520;28;19920;-55
2023/04/18 08:06:58;;;;;;;;;;;14.70;57.20;;;8.92;88.95;95608.66;4992681;28;19909;-53
2023/04/18 08:09:24;;;;;;;;;;;14.90;57.10;;;9.02;87.98;95601.59;4991433;28;19909;-50
2023/04/18 08:11:50;;;;;;;;;;;15.10;57.00;;;8.72;87.73;95607.44;4992819;28;19914;-53
2023/04/18 08:14:15;;;;;;;;;;;15.30;56.60;;;9.00;88.06;95609.00;4991865;28;19909;-55
2023/04/18 08:16:41;;;;;;;;;;;15.60;56.30;;;9.29;85.34;95607.88;4992267;28;19955;-53
2023/04/18 08:19:07;;;;;;;;;;;15.80;56.10;;;9.70;84.54;95603.59;4992472;28;19988;-55
2023/04/18 08:21:33;;;;;;;;;;;16.00;55.90;;;10.22;82.89;95604.66;5006682;28;19913;-56
2023/04/18 08:23:58;;;;;;;;;;;16.60;55.70;;;10.77;81.66;95606.66;5014767;28;20366;-56
2023/04/18 08:26:24;;;;;;;;;;;17.30;55.40;;;11.17;77.57;95609.59;5009114;28;19909;-54
2023/04/18 08:28:50;;;;;;;;;;;17.80;54.90;;;11.32;76.54;95604.28;4996552;28;19913;-57
2023/04/18 08:31:16;;;;;;;;;;;18.30;54.40;;;11.67;75.03;95598.06;4996179;28;20395;-55
2023/04/18 08:33:42;;;;;;;;;;;18.80;54.00;;;12.10;73.21;95600.38;4995557;28;19935;-52
2023/04/18 08:36:08;;;;;;;;;;;19.20;53.40;;;12.24;71.05;95604.03;4996341;28;20399;-52
2023/04/18 08:38:34;;;;;;;;;;;19.70;53.00;;;12.64;70.68;95603.03;4995031;28;19909;-53
2023/04/18 08:41:00;;;;;;;;;;;20.00;52.50;;;12.80;69.18;95594.91;4995025;28;19916;-51
2023/04/18 08:43:28;;;;;;;;;;;20.30;52.10;;;13.09;66.58;95609.13;4996091;28;19916;-53
2023/04/18 08:45:58;;;;;;;;;;;20.70;51.70;;;13.62;65.32;95598.53;4995268;28;19909;-57
2023/04/18 08:48:27;;;;;;;;;;;21.10;51.20;;;13.79;63.62;95613.38;4995807;28;20392;-52
2023/04/18 08:50:57;;;;;;;;;;;21.30;50.80;;;13.57;63.71;95608.47;4995187;28;20398;-54
2023/04/18 08:53:25;;;;;;;;;;;21.40;50.50;;;13.06;66.87;95619.59;4996325;28;19913;-54
2023/04/18 08:55:59;;;;;;;;;;;21.30;50.30;;;13.34;63.69;95618.06;4994802;28;19953;-55
2023/04/18 08:58:26;;;;;;;;;;;21.40;50.10;;;13.69;62.79;95614.25;4995874;28;19936;-51
2023/04/18 09:00:53;;;;;;;;;;;21.70;49.70;;;13.98;62.38;95621.47;4995568;28;20012;-52
2023/04/18 09:03:39;;;;;;;;;;;21.90;49.30;;;13.87;62.34;95620.75;4994888;28;19921;-56
2023/04/18 09:06:17;;;;;;;;;;;21.80;49.00;;;14.09;62.71;95618.38;4995879;28;19913;-50
2023/04/18 09:08:57;;;;;;;;;;;22.00;48.60;;;14.09;65.15;95622.94;4994871;28;20371;-52
2023/04/18 09:11:27;;;;;;;;;;;22.00;48.50;;;14.14;64.51;95619.41;4976017;28;19916;-49
2023/04/18 09:13:57;;;;;;;;;;;21.80;48.60;;;13.75;64.71;95618.47;4977227;28;19945;-53
2023/04/18 09:16:24;;;;;;;;;;;21.60;48.40;;;13.60;65.63;95615.94;4995396;28;19913;-51
2023/04/18 09:19:17;;;;;;;;;;;21.40;48.40;;;13.73;67.12;95620.66;4995577;28;19910;-50
2023/04/18 09:21:47;;;;;;;;;;;21.30;48.60;;;13.82;65.62;95624.31;4994461;28;20003;-50
2023/04/18 09:24:19;;;;;;;;;;;21.20;48.60;;;13.77;64.63;95618.19;4995488;28;20364;-53
2023/04/18 09:26:48;;;;;;;;;;;21.10;48.60;;;13.86;64.20;95611.94;4994571;28;19913;-52
2023/04/18 09:29:17;;;;;;;;;;;21.20;48.50;;;14.14;63.93;95614.06;4995534;28;20020;-51
2023/04/18 09:32:00;;;;;;;;;;;21.50;48.40;;;14.07;64.53;95611.69;4994465;28;20265;-55
2023/04/18 09:34:27;;;;;;;;;;;21.50;48.30;;;13.82;63.56;95623.50;4993998;28;19909;-51
2023/04/18 09:37:13;;;;;;;;;;;21.40;48.20;;;13.76;64.76;95617.41;4994861;28;19917;-50
2023/04/18 09:39:42;;;;;;;;;;;21.20;48.30;;;13.88;64.23;95622.34;4994398;28;19913;-51
2023/04/18 09:42:12;;;;;;;;;;;21.10;48.30;;;13.96;63.78;95620.94;4994910;28;20291;-50
2023/04/18 09:44:56;;;;;;;;;;;20.90;48.30;;;13.97;63.93;95622.53;5001837;28;19913;-51
2023/04/18 09:47:22;;;;;;;;;;;20.90;48.30;;;13.77;65.51;95626.22;5014583;28;19913;-52
2023/04/18 09:49:48;;;;;;;;;;;21.00;48.30;;;13.53;65.11;95623.50;5012131;28;20401;-52
2023/04/18 09:52:16;;;;;;;;;;;21.00;47.90;;;13.53;66.13;95624.31;4973505;28;19909;-55
2023/04/18 09:54:44;;;;;;;;;;;20.90;47.80;;;13.37;65.31;95630.88;4988488;28;19949;-52
2023/04/18 09:57:12;;;;;;;;;;;20.90;47.70;;;13.44;67.52;95626.00;4970079;28;19914;-52
2023/04/18 09:59:53;;;;;;;;;;;21.00;47.70;;;13.41;66.26;95623.88;4993413;28;19936;-50
2023/04/18 10:02:21;;;;;;;;;;;21.00;47.70;;;13.76;65.98;95627.31;4989637;28;19921;-59
2023/04/18 10:04:50;;;;;;;;;;;21.00;47.80;;;13.73;66.79;95630.56;4987686;28;19917;-54
2023/04/18 10:07:16;;;;;;;;;;;21.00;47.70;;;13.97;64.70;95620.66;4975517;28;20560;-53
2023/04/18 10:09:46;;;;;;;;;;;21.30;47.40;;;14.18;64.12;95633.81;4984966;28;19924;-53
2023/04/18 10:12:13;;;;;;;;;;;21.40;47.30;;;14.28;63.60;95625.66;4979168;28;19940;-53
2023/04/18 10:14:42;;;;;;;;;;;21.60;47.20;;;14.39;63.59;95629.03;4973252;28;19913;-55
2023/04/18 10:17:10;;;;;;;;;;;21.70;47.10;;;14.48;62.42;95622.75;4997751;28;20624;-50
2023/04/18 10:19:40;;;;;;;;;;;21.80;47.10;;;14.56;62.49;95627.47;4991685;28;19956;-51
2023/04/18 10:22:07;;;;;;;;;;;21.80;47.00;;;14.55;61.92;95619.72;4991935;28;19913;-54
2023/04/18 10:24:44;;;;;;;;;;;21.90;47.10;;;14.76;61.77;95631.78;4992435;28;19913;-53
2023/04/18 10:27:10;;;;;;;;;;;21.90;47.00;;;14.78;61.04;95632.28;4984135;28;19970;-51
2023/04/18 10:29:54;;;;;;;;;;;21.90;47.00;;;14.39;63.69;95624.47;4988998;28;19925;-57
2023/04/18 10:32:23;;;;;;;;;;;21.90;46.70;;;14.67;62.28;95627.34;4996304;28;19913;-52
2023/04/18 10:34:52;;;;;;;;;;;22.00;46.60;;;14.77;61.04;95627.22;4991203;28;19917;-52
2023/04/18 10:37:18;;;;;;;;;;;22.30;46.60;;;14.52;62.38;95625.66;4985666;28;19913;-52
2023/04/18 10:40:01;;;;;;;;;;;22.40;46.20;;;14.62;62.70;95620.16;4990389;28;19917;-51
2023/04/18 10:42:46;;;;;;;;;;;22.50;46.10;;;15.19;61.42;95614.78;4985912;28;19908;-53
2023/04/18 10:45:25;;;;;;;;;;;22.80;45.80;;;15.63;59.30;95610.81;4987181;28;20430;-53
2023/04/18 10:48:26;;;;;;;;;;;23.40;46.30;;;15.74;58.07;95617.66;4987194;28;19916;-52
2023/04/18 10:51:12;;;;;;;;;;;24.00;45.30;;;16.44;59.41;95619.25;4984443;28;19909;-51
2023/04/18 10:53:57;;;;;;;;;;;24.80;44.90;;;16.48;55.61;95600.63;4988971;28;20013;-55
2023/04/18 10:56:24;;;;;;;;;;;25.00;44.70;;;16.50;55.18;95604.59;4977958;28;19998;-57
2023/04/18 10:58:52;;;;;;;;;;;25.00;44.60;;;16.37;55.27;95598.16;4986936;28;19924;-55
2023/04/18 11:01:31;;;;;;;;;;;24.80;44.40;;;16.32;55.54;95605.50;4986951;28;20342;-58
2023/04/18 11:03:59;;;;;;;;;;;24.60;44.20;;;16.32;56.54;95608.19;4989353;28;19910;-56
2023/04/18 11:06:26;;;;;;;;;;;24.40;44.20;;;16.37;56.23;95603.53;4991698;28;20003;-54
2023/04/18 11:09:10;;;;;;;;;;;24.30;44.10;;;16.11;58.05;95597.88;4986213;28;20045;-56
2023/04/18 11:11:36;;;;;;;;;;;24.40;43.70;;;16.61;55.86;95599.81;4991000;28;19909;-56
2023/04/18 11:14:02;;;;;;;;;;;25.00;43.30;;;16.74;55.53;95595.50;4993834;28;19967;-58
2023/04/18 11:16:31;;;;;;;;;;;25.50;43.00;;;17.16;51.16;95593.47;4992618;28;19928;-53
2023/04/18 11:18:57;;;;;;;;;;;26.00;42.60;;;17.11;49.85;95589.81;4988333;28;19909;-50
2023/04/18 11:21:27;;;;;;;;;;;26.20;42.40;;;16.99;51.32;95597.63;4991900;28;20269;-53
2023/04/18 11:23:55;;;;;;;;;;;26.00;42.60;;;16.78;52.94;95599.19;4987409;28;19971;-54
2023/04/18 11:26:26;;;;;;;;;;;25.80;41.90;;;17.03;53.52;95600.50;4985013;28;19917;-58